createdAt,value
2023-01-08T00:02:10.803Z,98367.72
2023-01-08T00:04:37.412Z,98368.91
2023-01-08T00:07:03.801Z,98355.34
2023-01-08T00:09:30.442Z,98355.31
2023-01-08T00:11:56.986Z,98355.16
2023-01-08T00:14:23.544Z,98362.50
2023-01-08T00:16:51.714Z,98362.34
2023-01-08T00:19:19.014Z,98365.69
2023-01-08T00:21:45.407Z,98356.69
2023-01-08T00:24:14.749Z,98353.81
2023-01-08T00:26:41.264Z,98356.69
2023-01-08T00:29:07.859Z,98361.22
2023-01-08T00:31:34.258Z,98359.88
2023-01-08T00:34:00.638Z,98355.50
2023-01-08T00:36:27.167Z,98362.72
2023-01-08T00:38:53.579Z,98362.50
2023-01-08T00:41:20.816Z,98355.97
2023-01-08T00:43:47.320Z,98355.47
2023-01-08T00:46:14.000Z,98354.63
2023-01-08T00:48:40.626Z,98340.44
2023-01-08T00:51:08.685Z,98344.28
2023-01-08T00:53:35.611Z,98337.59
2023-01-08T00:56:04.668Z,98333.09
2023-01-08T00:58:31.122Z,98320.50
2023-01-08T01:00:57.887Z,98312.00
2023-01-08T01:03:24.514Z,98323.03
2023-01-08T01:05:59.494Z,98325.44
2023-01-08T01:08:25.880Z,98333.09
2023-01-08T01:10:52.480Z,98334.75
2023-01-08T01:13:18.872Z,98332.38
2023-01-08T01:15:45.462Z,98336.88
2023-01-08T01:18:12.095Z,98322.34
2023-01-08T01:20:38.782Z,98328.66
2023-01-08T01:23:05.561Z,98326.22
2023-01-08T01:25:37.159Z,98331.72
2023-01-08T01:28:03.756Z,98332.59
2023-01-08T01:30:30.334Z,98331.94
2023-01-08T01:32:56.723Z,98327.75
2023-01-08T01:35:23.187Z,98327.88
2023-01-08T01:37:49.601Z,98327.22
2023-01-08T01:40:16.296Z,98328.22
2023-01-08T01:42:43.991Z,98326.50
2023-01-08T01:45:14.832Z,98318.84
2023-01-08T01:47:42.537Z,98319.00
2023-01-08T01:50:24.548Z,98327.88
2023-01-08T01:52:54.028Z,98322.50
2023-01-08T01:55:20.981Z,98321.34
2023-01-08T01:57:53.231Z,98325.34
2023-01-08T02:00:20.323Z,98327.19
2023-01-08T02:02:46.726Z,98317.25
2023-01-08T02:05:13.479Z,98315.97
2023-01-08T02:07:49.108Z,98315.91
2023-01-08T02:10:37.052Z,98319.44
2023-01-08T02:13:31.802Z,98315.56
2023-01-08T02:16:15.838Z,98320.09
2023-01-08T02:18:55.057Z,98301.97
2023-01-08T02:21:29.125Z,98306.03
2023-01-08T02:24:08.199Z,98301.00
2023-01-08T02:26:35.847Z,98298.31
2023-01-08T02:29:09.939Z,98304.97
2023-01-08T02:31:40.495Z,98288.91
2023-01-08T02:34:07.804Z,98292.63
2023-01-08T02:36:34.230Z,98284.06
2023-01-08T02:39:14.408Z,98282.88
2023-01-08T02:41:47.938Z,98278.25
2023-01-08T02:44:22.052Z,98275.84
2023-01-08T02:46:52.263Z,98269.97
2023-01-08T02:49:21.419Z,98272.66
2023-01-08T02:51:54.564Z,98257.59
2023-01-08T02:54:26.572Z,98244.75
2023-01-08T02:57:14.758Z,98253.75
2023-01-08T02:59:44.651Z,98248.41
2023-01-08T03:02:12.179Z,98247.41
2023-01-08T03:04:45.498Z,98227.34
2023-01-08T03:07:12.069Z,98229.72
2023-01-08T03:09:38.503Z,98224.69
2023-01-08T03:12:18.587Z,98220.72
2023-01-08T03:14:55.867Z,98229.38
2023-01-08T03:17:39.508Z,98225.34
2023-01-08T03:20:19.307Z,98219.13
2023-01-08T03:22:49.537Z,98226.19
2023-01-08T03:25:20.129Z,98219.50
2023-01-08T03:27:51.033Z,98222.16
2023-01-08T03:30:21.090Z,98210.59
2023-01-08T03:32:50.048Z,98219.94
2023-01-08T03:35:20.647Z,98210.44
2023-01-08T03:37:54.255Z,98211.09
2023-01-08T03:40:25.992Z,98208.94
2023-01-08T03:42:52.729Z,98215.94
2023-01-08T03:45:21.473Z,98222.97
2023-01-08T03:47:48.796Z,98216.34
2023-01-08T03:50:21.036Z,98228.03
2023-01-08T03:52:47.405Z,98218.63
2023-01-08T03:55:14.022Z,98217.31
2023-01-08T03:57:40.403Z,98214.44
2023-01-08T04:00:07.585Z,98221.97
2023-01-08T04:02:34.795Z,98211.78
2023-01-08T04:05:01.463Z,98220.41
2023-01-08T04:07:27.969Z,98224.28
2023-01-08T04:09:54.481Z,98227.31
2023-01-08T04:12:20.884Z,98222.28
2023-01-08T04:14:47.270Z,98208.69
2023-01-08T04:17:14.126Z,98215.53
2023-01-08T04:19:40.504Z,98210.53
2023-01-08T04:22:08.998Z,98218.41
2023-01-08T04:24:35.378Z,98209.88
2023-01-08T04:27:01.823Z,98210.91
2023-01-08T04:29:28.304Z,98199.69
2023-01-08T04:31:54.742Z,98200.16
2023-01-08T04:34:21.470Z,98194.66
2023-01-08T04:36:47.826Z,98189.97
2023-01-08T04:39:15.358Z,98186.13
2023-01-08T04:41:41.824Z,98178.25
2023-01-08T04:44:09.283Z,98187.97
2023-01-08T04:46:36.396Z,98192.81
2023-01-08T04:49:03.026Z,98181.78
2023-01-08T04:51:29.584Z,98181.13
2023-01-08T04:53:56.208Z,98185.25
2023-01-08T04:56:22.717Z,98184.09
2023-01-08T04:58:49.243Z,98182.25
2023-01-08T05:01:23.842Z,98183.75
2023-01-08T05:04:01.461Z,98181.38
2023-01-08T05:06:29.767Z,98179.69
2023-01-08T05:08:56.666Z,98175.41
2023-01-08T05:11:23.907Z,98181.28
2023-01-08T05:13:52.194Z,98185.94
2023-01-08T05:16:18.904Z,98178.44
2023-01-08T05:18:45.662Z,98181.31
2023-01-08T05:21:13.601Z,98183.59
2023-01-08T05:23:40.355Z,98170.56
2023-01-08T05:26:07.499Z,98165.34
2023-01-08T05:28:34.085Z,98167.38
2023-01-08T05:31:00.661Z,98162.66
2023-01-08T05:33:27.322Z,98158.31
2023-01-08T05:35:53.842Z,98173.63
2023-01-08T05:38:20.295Z,98167.84
2023-01-08T05:40:46.789Z,98164.94
2023-01-08T05:43:13.380Z,98160.66
2023-01-08T05:45:39.976Z,98161.44
2023-01-08T05:48:07.290Z,98166.28
2023-01-08T05:50:34.385Z,98163.84
2023-01-08T05:53:01.091Z,98173.50
2023-01-08T05:55:27.685Z,98176.31
2023-01-08T05:57:54.134Z,98171.94
2023-01-08T06:00:20.855Z,98177.59
2023-01-08T06:02:48.056Z,98171.25
2023-01-08T06:05:14.826Z,98176.78
2023-01-08T06:07:41.199Z,98169.72
2023-01-08T06:10:08.332Z,98168.91
2023-01-08T06:12:34.910Z,98171.22
2023-01-08T06:15:01.449Z,98161.25
2023-01-08T06:17:27.845Z,98162.22
2023-01-08T06:19:54.216Z,98165.25
2023-01-08T06:22:20.762Z,98171.94
2023-01-08T06:24:47.128Z,98165.94
2023-01-08T06:27:13.529Z,98156.56
2023-01-08T06:29:40.108Z,98152.22
2023-01-08T06:32:06.530Z,98152.34
2023-01-08T06:34:33.089Z,98152.66
2023-01-08T06:36:59.488Z,98160.16
2023-01-08T06:39:26.229Z,98159.00
2023-01-08T06:41:52.627Z,98153.84
2023-01-08T06:44:19.238Z,98165.25
2023-01-08T06:46:45.752Z,98154.22
2023-01-08T06:49:13.720Z,98171.94
2023-01-08T06:51:40.406Z,98174.25
2023-01-08T06:54:06.991Z,98178.44
2023-01-08T06:56:42.725Z,98173.72
2023-01-08T06:59:19.055Z,98167.88
2023-01-08T07:01:45.745Z,98163.19
2023-01-08T07:04:12.234Z,98170.91
2023-01-08T07:06:38.753Z,98188.81
2023-01-08T07:09:05.189Z,98186.88
2023-01-08T07:11:31.818Z,98187.88
2023-01-08T07:13:58.281Z,98178.13
2023-01-08T07:16:24.732Z,98175.31
2023-01-08T07:18:51.387Z,98177.63
2023-01-08T07:21:17.798Z,98189.50
2023-01-08T07:23:47.153Z,98191.50
2023-01-08T07:26:13.560Z,98197.47
2023-01-08T07:28:40.049Z,98204.81
2023-01-08T07:31:06.765Z,98202.44
2023-01-08T07:33:34.238Z,98196.56
2023-01-08T07:36:00.716Z,98196.56
2023-01-08T07:38:27.379Z,98195.75
2023-01-08T07:40:53.881Z,98188.72
2023-01-08T07:43:20.430Z,98190.41
2023-01-08T07:45:46.843Z,98197.44
2023-01-08T07:48:16.466Z,98189.56
2023-01-08T07:50:44.738Z,98200.25
2023-01-08T07:53:13.557Z,98202.06
2023-01-08T07:55:40.122Z,98200.56
2023-01-08T07:58:11.321Z,98202.94
2023-01-08T08:00:38.422Z,98207.75
2023-01-08T08:03:07.535Z,98207.59
2023-01-08T08:05:34.491Z,98204.91
2023-01-08T08:08:01.235Z,98195.22
2023-01-08T08:10:28.391Z,98191.00
2023-01-08T08:12:55.359Z,98195.00
2023-01-08T08:15:21.936Z,98194.53
2023-01-08T08:17:48.926Z,98185.47
2023-01-08T08:20:15.764Z,98184.69
2023-01-08T08:22:42.240Z,98185.19
2023-01-08T08:25:09.408Z,98180.19
2023-01-08T08:27:35.980Z,98175.31
2023-01-08T08:30:02.507Z,98168.44
2023-01-08T08:32:28.929Z,98180.13
2023-01-08T08:34:55.422Z,98174.44
2023-01-08T08:37:22.022Z,98181.19
2023-01-08T08:39:48.804Z,98181.44
2023-01-08T08:42:15.180Z,98174.78
2023-01-08T08:44:43.001Z,98177.53
2023-01-08T08:47:09.716Z,98178.13
2023-01-08T08:49:39.937Z,98179.19
2023-01-08T08:52:06.845Z,98181.50
2023-01-08T08:54:33.489Z,98164.78
2023-01-08T08:56:59.871Z,98168.06
2023-01-08T08:59:26.425Z,98171.25
2023-01-08T09:01:52.899Z,98170.63
2023-01-08T09:04:19.474Z,98160.63
2023-01-08T09:06:45.931Z,98169.97
2023-01-08T09:09:12.545Z,98165.41
2023-01-08T09:11:39.047Z,98171.09
2023-01-08T09:14:05.459Z,98171.44
2023-01-08T09:16:33.141Z,98154.44
2023-01-08T09:18:59.592Z,98142.41
2023-01-08T09:21:26.159Z,98148.59
2023-01-08T09:23:52.700Z,98160.47
2023-01-08T09:26:19.335Z,98152.69
2023-01-08T09:28:45.724Z,98145.44
2023-01-08T09:31:12.309Z,98148.75
2023-01-08T09:33:38.787Z,98141.19
2023-01-08T09:36:11.294Z,98142.00
2023-01-08T09:38:37.730Z,98152.84
2023-01-08T09:41:11.764Z,98152.69
2023-01-08T09:43:43.449Z,98154.78
2023-01-08T09:46:11.804Z,98146.09
2023-01-08T09:48:41.253Z,98143.28
2023-01-08T09:51:14.230Z,98148.16
2023-01-08T09:53:42.517Z,98143.72
2023-01-08T09:56:18.662Z,98141.47
2023-01-08T09:58:50.318Z,98142.00
2023-01-08T10:01:23.621Z,98145.56
2023-01-08T10:04:05.940Z,98147.06
2023-01-08T10:06:33.046Z,98147.63
2023-01-08T10:08:59.877Z,98142.47
2023-01-08T10:11:33.213Z,98133.63
2023-01-08T10:13:59.664Z,98138.84
2023-01-08T10:16:37.851Z,98130.16
2023-01-08T10:19:04.893Z,98123.50
2023-01-08T10:21:37.761Z,98131.75
2023-01-08T10:24:04.517Z,98127.34
2023-01-08T10:26:36.732Z,98128.09
2023-01-08T10:29:29.697Z,98116.41
2023-01-08T10:31:58.479Z,98113.75
2023-01-08T10:34:41.437Z,98114.75
2023-01-08T10:37:24.153Z,98112.56
2023-01-08T10:39:52.645Z,98100.56
2023-01-08T10:42:20.803Z,98091.84
2023-01-08T10:45:21.684Z,98097.72
2023-01-08T10:47:50.209Z,98079.19
2023-01-08T10:50:23.829Z,98069.81
2023-01-08T10:53:24.320Z,98065.16
2023-01-08T10:55:58.911Z,98058.44
2023-01-08T10:58:30.603Z,98054.78
2023-01-08T11:01:11.185Z,98049.59
2023-01-08T11:03:38.020Z,98039.91
2023-01-08T11:06:13.703Z,98033.84
2023-01-08T11:08:51.511Z,98030.03
2023-01-08T11:11:18.865Z,98018.84
2023-01-08T11:13:55.842Z,98019.16
2023-01-08T11:16:23.858Z,98025.34
2023-01-08T11:18:51.700Z,98016.94
2023-01-08T11:21:24.380Z,98004.41
2023-01-08T11:24:18.465Z,98010.44
2023-01-08T11:26:56.694Z,97991.53
2023-01-08T11:29:52.276Z,97997.53
2023-01-08T11:32:32.577Z,97991.53
2023-01-08T11:35:04.175Z,97998.53
2023-01-08T11:37:35.883Z,97986.84
2023-01-08T11:40:02.857Z,97985.50
2023-01-08T11:42:48.044Z,97980.97
2023-01-08T11:45:26.840Z,97970.59
2023-01-08T11:48:05.309Z,97972.72
2023-01-08T11:50:49.273Z,97961.00
2023-01-08T11:53:35.999Z,97966.34
2023-01-08T11:56:20.243Z,97952.59
2023-01-08T11:59:00.636Z,97947.44
2023-01-08T12:01:33.183Z,97953.25
2023-01-08T12:04:33.593Z,97948.03
2023-01-08T12:07:21.109Z,97945.97
2023-01-08T12:10:00.482Z,97947.50
2023-01-08T12:12:47.265Z,97941.19
2023-01-08T12:15:26.518Z,97943.22
2023-01-08T12:18:25.929Z,97935.03
2023-01-08T12:21:10.731Z,97935.88
2023-01-08T12:23:49.693Z,97935.19
2023-01-08T12:26:41.860Z,97922.44
2023-01-08T12:29:36.017Z,97927.97
2023-01-08T12:32:24.418Z,97926.22
2023-01-08T12:35:09.712Z,97922.22
2023-01-08T12:37:55.421Z,97922.56
2023-01-08T12:40:35.905Z,97920.50
2023-01-08T12:43:11.126Z,97912.59
2023-01-08T12:45:44.788Z,97916.78
2023-01-08T12:48:19.403Z,97916.31
2023-01-08T12:51:07.748Z,97911.66
2023-01-08T12:53:34.186Z,97912.19
2023-01-08T12:56:09.827Z,97909.00
2023-01-08T12:58:47.102Z,97898.97
2023-01-08T13:01:49.116Z,97899.44
2023-01-08T13:04:16.449Z,97905.44
2023-01-08T13:06:51.223Z,97900.06
2023-01-08T13:09:27.744Z,97904.59
2023-01-08T13:11:57.350Z,97897.94
2023-01-08T13:14:26.765Z,97899.91
2023-01-08T13:17:06.392Z,97898.91
2023-01-08T13:19:41.809Z,97895.25
2023-01-08T13:22:38.138Z,97891.25
2023-01-08T13:25:14.999Z,97892.28
2023-01-08T13:27:42.273Z,97877.69
2023-01-08T13:30:33.859Z,97875.09
2023-01-08T13:33:00.778Z,97877.78
2023-01-08T13:35:49.450Z,97873.78
2023-01-08T13:38:18.542Z,97875.44
2023-01-08T13:40:45.010Z,97864.88
2023-01-08T13:43:15.442Z,97860.69
2023-01-08T13:45:42.891Z,97864.56
2023-01-08T13:48:24.623Z,97854.00
2023-01-08T13:50:51.340Z,97857.34
2023-01-08T13:53:19.530Z,97842.66
2023-01-08T13:55:54.962Z,97841.94
2023-01-08T13:58:30.975Z,97848.28
2023-01-08T14:00:59.564Z,97841.44
2023-01-08T14:03:39.915Z,97833.16
2023-01-08T14:06:19.938Z,97825.22
2023-01-08T14:08:57.449Z,97828.84
2023-01-08T14:11:29.337Z,97820.97
2023-01-08T14:13:57.197Z,97814.59
2023-01-08T14:16:24.365Z,97811.06
2023-01-08T14:18:51.740Z,97816.66
2023-01-08T14:21:22.937Z,97821.91
2023-01-08T14:23:51.598Z,97817.47
2023-01-08T14:26:25.822Z,97809.28
2023-01-08T14:28:52.971Z,97815.97
2023-01-08T14:31:22.270Z,97808.16
2023-01-08T14:33:50.574Z,97818.72
2023-01-08T14:36:19.165Z,97820.44
2023-01-08T14:38:50.558Z,97824.63
2023-01-08T14:41:54.685Z,97822.97
2023-01-08T14:44:36.378Z,97820.28
2023-01-08T14:47:05.232Z,97814.63
2023-01-08T14:49:34.846Z,97825.47
2023-01-08T14:52:02.757Z,97808.94
2023-01-08T14:54:34.749Z,97812.28
2023-01-08T14:57:02.602Z,97811.63
2023-01-08T14:59:33.964Z,97803.25
2023-01-08T15:02:02.899Z,97804.59
2023-01-08T15:04:30.503Z,97804.28
2023-01-08T15:07:25.308Z,97797.59
2023-01-08T15:10:00.999Z,97800.63
2023-01-08T15:12:32.859Z,97790.56
2023-01-08T15:15:10.145Z,97791.28
2023-01-08T15:17:36.637Z,97780.56
2023-01-08T15:20:03.379Z,97785.28
2023-01-08T15:22:32.827Z,97791.25
2023-01-08T15:25:02.666Z,97786.09
2023-01-08T15:27:31.471Z,97790.28
2023-01-08T15:30:03.432Z,97785.28
2023-01-08T15:32:36.884Z,97783.59
2023-01-08T15:35:18.017Z,97777.59
2023-01-08T15:37:45.223Z,97759.88
2023-01-08T15:40:12.630Z,97764.91
2023-01-08T15:42:57.734Z,97766.25
2023-01-08T15:45:29.327Z,97770.94
2023-01-08T15:47:56.361Z,97775.28
2023-01-08T15:50:24.862Z,97764.25
2023-01-08T15:52:51.552Z,97759.22
2023-01-08T15:55:20.771Z,97762.38
2023-01-08T15:57:47.462Z,97762.38
2023-01-08T16:00:15.829Z,97767.91
2023-01-08T16:02:46.363Z,97762.19
2023-01-08T16:05:13.869Z,97763.69
2023-01-08T16:07:40.436Z,97764.53
2023-01-08T16:10:07.523Z,97757.56
2023-01-08T16:12:33.966Z,97756.53
2023-01-08T16:15:00.424Z,97757.69
2023-01-08T16:17:29.828Z,97757.88
2023-01-08T16:19:56.349Z,97763.84
2023-01-08T16:22:22.720Z,97764.19
2023-01-08T16:24:49.239Z,97756.50
2023-01-08T16:27:15.703Z,97760.53
2023-01-08T16:29:42.184Z,97764.19
2023-01-08T16:32:08.571Z,97749.66
2023-01-08T16:34:35.176Z,97755.19
2023-01-08T16:37:01.591Z,97750.66
2023-01-08T16:39:28.647Z,97744.16
2023-01-08T16:41:55.061Z,97746.81
2023-01-08T16:44:26.279Z,97749.16
2023-01-08T16:46:53.338Z,97753.44
2023-01-08T16:49:20.143Z,97743.97
2023-01-08T16:51:46.576Z,97746.81
2023-01-08T16:54:14.652Z,97735.09
2023-01-08T16:56:41.026Z,97734.59
2023-01-08T16:59:18.293Z,97724.94
2023-01-08T17:01:49.333Z,97713.06
2023-01-08T17:04:15.793Z,97706.25
2023-01-08T17:06:42.161Z,97715.38
2023-01-08T17:09:11.345Z,97708.53
2023-01-08T17:11:38.216Z,97705.03
2023-01-08T17:14:04.663Z,97699.03
2023-01-08T17:16:31.450Z,97696.50
2023-01-08T17:18:57.943Z,97689.66
2023-01-08T17:21:24.523Z,97673.84
2023-01-08T17:23:50.912Z,97675.38
2023-01-08T17:26:17.928Z,97675.03
2023-01-08T17:28:44.990Z,97669.03
2023-01-08T17:31:18.380Z,97668.69
2023-01-08T17:33:49.649Z,97666.16
2023-01-08T17:36:18.129Z,97672.34
2023-01-08T17:38:46.649Z,97676.84
2023-01-08T17:41:36.325Z,97680.38
2023-01-08T17:44:06.643Z,97686.66
2023-01-08T17:46:39.611Z,97681.28
2023-01-08T17:49:06.055Z,97679.97
2023-01-08T17:51:33.388Z,97681.94
2023-01-08T17:54:00.484Z,97675.44
2023-01-08T17:56:27.715Z,97676.59
2023-01-08T17:58:54.164Z,97671.25
2023-01-08T18:01:21.079Z,97680.56
2023-01-08T18:03:47.891Z,97664.59
2023-01-08T18:06:14.491Z,97668.06
2023-01-08T18:08:41.459Z,97671.88
2023-01-08T18:11:09.727Z,97659.88
2023-01-08T18:13:36.759Z,97664.03
2023-01-08T18:16:05.362Z,97661.53
2023-01-08T18:18:32.082Z,97657.88
2023-01-08T18:20:58.676Z,97646.19
2023-01-08T18:23:25.340Z,97647.25
2023-01-08T18:25:52.096Z,97642.22
2023-01-08T18:28:18.815Z,97642.03
2023-01-08T18:30:48.116Z,97646.56
2023-01-08T18:33:15.411Z,97635.22
2023-01-08T18:35:42.182Z,97627.94
2023-01-08T18:38:15.805Z,97621.25
2023-01-08T18:40:43.440Z,97637.91
2023-01-08T18:43:11.126Z,97627.25
2023-01-08T18:45:39.384Z,97628.63
2023-01-08T18:48:09.286Z,97624.59
2023-01-08T18:50:40.262Z,97624.34
2023-01-08T18:53:09.078Z,97623.66
2023-01-08T18:55:37.233Z,97614.84
2023-01-08T18:58:04.639Z,97606.50
2023-01-08T19:00:31.701Z,97597.31
2023-01-08T19:02:58.557Z,97596.16
2023-01-08T19:05:25.049Z,97599.00
2023-01-08T19:07:51.542Z,97604.50
2023-01-08T19:10:18.074Z,97597.66
2023-01-08T19:12:44.891Z,97585.66
2023-01-08T19:15:11.954Z,97588.31
2023-01-08T19:17:38.626Z,97583.47
2023-01-08T19:20:05.871Z,97588.50
2023-01-08T19:22:32.595Z,97587.50
2023-01-08T19:24:59.101Z,97582.66
2023-01-08T19:27:25.506Z,97578.16
2023-01-08T19:29:52.017Z,97577.66
2023-01-08T19:32:18.417Z,97570.66
2023-01-08T19:34:44.994Z,97566.97
2023-01-08T19:37:11.930Z,97552.75
2023-01-08T19:39:38.525Z,97551.94
2023-01-08T19:42:23.724Z,97549.59
2023-01-08T19:44:50.209Z,97555.44
2023-01-08T19:47:16.904Z,97527.25
2023-01-08T19:49:47.483Z,97532.91
2023-01-08T19:52:15.359Z,97535.75
2023-01-08T19:54:42.526Z,97537.75
2023-01-08T19:57:09.042Z,97542.72
2023-01-08T19:59:35.653Z,97528.53
2023-01-08T20:02:02.318Z,97520.88
2023-01-08T20:04:30.768Z,97522.69
2023-01-08T20:06:59.236Z,97518.84
2023-01-08T20:09:25.644Z,97525.28
2023-01-08T20:11:52.049Z,97508.16
2023-01-08T20:14:20.879Z,97507.66
2023-01-08T20:16:47.556Z,97504.81
2023-01-08T20:19:14.146Z,97504.69
2023-01-08T20:21:40.567Z,97497.63
2023-01-08T20:24:11.080Z,97487.13
2023-01-08T20:26:38.273Z,97491.81
2023-01-08T20:29:05.754Z,97480.09
2023-01-08T20:31:35.532Z,97485.47
2023-01-08T20:34:04.951Z,97482.81
2023-01-08T20:36:33.678Z,97477.97
2023-01-08T20:39:02.834Z,97473.94
2023-01-08T20:41:29.875Z,97464.44
2023-01-08T20:43:56.962Z,97465.41
2023-01-08T20:46:28.931Z,97457.91
2023-01-08T20:48:56.868Z,97464.28
2023-01-08T20:51:23.392Z,97457.09
2023-01-08T20:53:49.795Z,97444.88
2023-01-08T20:56:16.866Z,97448.91
2023-01-08T20:58:46.402Z,97439.69
2023-01-08T21:01:15.774Z,97435.19
2023-01-08T21:03:43.492Z,97435.28
2023-01-08T21:06:13.116Z,97435.28
2023-01-08T21:08:40.916Z,97426.16
2023-01-08T21:11:08.988Z,97428.16
2023-01-08T21:13:36.225Z,97420.50
2023-01-08T21:16:07.547Z,97423.50
2023-01-08T21:18:34.088Z,97411.78
2023-01-08T21:21:03.563Z,97404.94
2023-01-08T21:23:31.863Z,97408.56
2023-01-08T21:26:03.946Z,97406.47
2023-01-08T21:28:30.688Z,97397.06
2023-01-08T21:31:08.124Z,97385.00
2023-01-08T21:33:34.771Z,97389.84
2023-01-08T21:36:10.491Z,97389.41
2023-01-08T21:38:37.641Z,97381.22
2023-01-08T21:41:07.394Z,97372.56
2023-01-08T21:43:53.058Z,97376.78
2023-01-08T21:46:23.436Z,97377.25
2023-01-08T21:48:51.934Z,97372.72
2023-01-08T21:51:37.154Z,97368.59
2023-01-08T21:54:04.178Z,97359.19
2023-01-08T21:56:31.119Z,97358.84
2023-01-08T21:58:57.573Z,97355.88
2023-01-08T22:01:24.176Z,97362.50
2023-01-08T22:03:50.661Z,97350.88
2023-01-08T22:06:17.210Z,97348.22
2023-01-08T22:08:45.101Z,97344.53
2023-01-08T22:11:11.564Z,97346.97
2023-01-08T22:13:39.247Z,97338.31
2023-01-08T22:16:09.097Z,97327.16
2023-01-08T22:18:36.125Z,97334.16
2023-01-08T22:21:08.160Z,97331.19
2023-01-08T22:23:34.918Z,97325.84
2023-01-08T22:26:06.524Z,97331.53
2023-01-08T22:28:33.408Z,97331.97
2023-01-08T22:31:04.137Z,97327.44
2023-01-08T22:33:30.538Z,97327.50
2023-01-08T22:35:57.321Z,97321.50
2023-01-08T22:38:23.815Z,97325.25
2023-01-08T22:40:50.337Z,97328.09
2023-01-08T22:43:17.018Z,97323.09
2023-01-08T22:45:43.496Z,97326.63
2023-01-08T22:48:09.954Z,97333.50
2023-01-08T22:50:36.543Z,97324.97
2023-01-08T22:53:03.042Z,97330.84
2023-01-08T22:55:29.582Z,97333.97
2023-01-08T22:57:56.253Z,97329.50
2023-01-08T23:00:22.671Z,97330.34
2023-01-08T23:02:49.082Z,97332.03
2023-01-08T23:05:15.711Z,97335.06
2023-01-08T23:07:42.178Z,97329.28
2023-01-08T23:10:09.962Z,97329.44
2023-01-08T23:12:36.638Z,97328.09
2023-01-08T23:15:04.350Z,97327.41
2023-01-08T23:17:32.384Z,97328.13
2023-01-08T23:20:00.056Z,97333.81
2023-01-08T23:22:26.641Z,97334.13
2023-01-08T23:24:52.983Z,97333.97
2023-01-08T23:27:19.578Z,97329.78
2023-01-08T23:29:45.969Z,97323.63
2023-01-08T23:32:12.519Z,97328.47
2023-01-08T23:34:38.919Z,97323.41
2023-01-08T23:37:05.481Z,97330.75
2023-01-08T23:39:31.975Z,97324.06
2023-01-08T23:41:58.625Z,97319.41
2023-01-08T23:44:25.090Z,97326.09
2023-01-08T23:46:51.634Z,97326.75
2023-01-08T23:49:18.086Z,97326.09
2023-01-08T23:51:44.595Z,97318.44
2023-01-08T23:54:12.087Z,97325.78
2023-01-08T23:56:39.644Z,97325.16
2023-01-08T23:59:06.100Z,97327.84
